createdAt,value
2017-08-19T00:01:20.783Z,99075.45
2017-08-19T00:03:48.243Z,99069.67
2017-08-19T00:06:15.736Z,99069.80
2017-08-19T00:08:43.301Z,99071.41
2017-08-19T00:11:10.776Z,99071.27
2017-08-19T00:13:38.244Z,99076.52
2017-08-19T00:16:05.860Z,99074.78
2017-08-19T00:18:33.355Z,99079.20
2017-08-19T00:21:00.817Z,99082.59
2017-08-19T00:23:28.909Z,99077.38
2017-08-19T00:25:56.416Z,99076.09
2017-08-19T00:28:23.907Z,99073.23
2017-08-19T00:30:51.392Z,99071.33
2017-08-19T00:33:19.570Z,99067.03
2017-08-19T00:35:47.119Z,99067.88
2017-08-19T00:38:14.579Z,99068.97
2017-08-19T00:40:42.109Z,99073.20
2017-08-19T00:43:09.562Z,99066.08
2017-08-19T00:45:37.058Z,99083.02
2017-08-19T00:48:04.582Z,99071.73
2017-08-19T00:50:33.150Z,99070.06
2017-08-19T00:53:00.606Z,99063.41
2017-08-19T00:55:28.102Z,99053.66
2017-08-19T00:57:55.602Z,99064.26
2017-08-19T01:00:23.399Z,99071.56
2017-08-19T01:02:50.891Z,99071.02
2017-08-19T01:05:18.362Z,99066.16
2017-08-19T01:07:45.865Z,99064.73
2017-08-19T01:10:13.345Z,99070.57
2017-08-19T01:12:40.836Z,99057.69
2017-08-19T01:15:08.321Z,99069.63
2017-08-19T01:17:35.824Z,99077.91
2017-08-19T01:20:03.302Z,99078.30
2017-08-19T01:22:30.803Z,99083.84
2017-08-19T01:25:10.180Z,99092.00
2017-08-19T01:27:37.659Z,99093.73
2017-08-19T01:30:05.134Z,99079.92
2017-08-19T01:32:32.617Z,99087.09
2017-08-19T01:35:00.094Z,99090.44
2017-08-19T01:37:27.545Z,99093.34
2017-08-19T01:39:55.033Z,99097.52
2017-08-19T01:42:22.518Z,99094.02
2017-08-19T01:44:49.973Z,99093.30
2017-08-19T01:47:17.457Z,99082.92
2017-08-19T01:49:44.946Z,99076.75
2017-08-19T01:52:12.442Z,99085.75
2017-08-19T01:54:39.908Z,99082.45
2017-08-19T01:57:08.104Z,99075.29
2017-08-19T01:59:35.556Z,99075.72
2017-08-19T02:02:03.051Z,99077.14
2017-08-19T02:04:30.550Z,99079.42
2017-08-19T02:06:58.038Z,99079.05
2017-08-19T02:09:25.520Z,99082.19
2017-08-19T02:11:52.986Z,99086.94
2017-08-19T02:14:20.491Z,99076.62
2017-08-19T02:16:47.973Z,99080.82
2017-08-19T02:19:15.456Z,99087.41
2017-08-19T02:21:42.961Z,99087.52
2017-08-19T02:24:10.447Z,99089.48
2017-08-19T02:26:37.929Z,99085.72
2017-08-19T02:29:05.759Z,99090.41
2017-08-19T02:31:33.250Z,99089.05
2017-08-19T02:34:00.724Z,99092.66
2017-08-19T02:36:28.238Z,99092.30
2017-08-19T02:38:55.713Z,99096.41
2017-08-19T02:41:23.181Z,99093.24
2017-08-19T02:43:50.645Z,99104.14
2017-08-19T02:46:18.138Z,99106.81
2017-08-19T02:48:45.598Z,99102.47
2017-08-19T02:51:13.123Z,99093.62
2017-08-19T02:53:40.617Z,99100.38
2017-08-19T02:56:08.095Z,99077.70
2017-08-19T02:58:35.560Z,99114.44
2017-08-19T03:01:03.087Z,99111.32
2017-08-19T03:03:30.547Z,99114.39
2017-08-19T03:05:58.032Z,99114.12
2017-08-19T03:08:25.571Z,99120.66
2017-08-19T03:10:53.058Z,99117.20
2017-08-19T03:13:20.542Z,99106.08
2017-08-19T03:15:48.046Z,99117.20
2017-08-19T03:18:15.545Z,99113.98
2017-08-19T03:20:43.022Z,99115.66
2017-08-19T03:23:10.487Z,99123.00
2017-08-19T03:25:37.980Z,99129.24
2017-08-19T03:28:05.452Z,99129.53
2017-08-19T03:30:32.951Z,99123.42
2017-08-19T03:33:00.478Z,99132.66
2017-08-19T03:35:27.958Z,99132.05
2017-08-19T03:37:55.511Z,99132.02
2017-08-19T03:40:22.975Z,99140.34
2017-08-19T03:42:50.497Z,99140.88
2017-08-19T03:45:17.973Z,99147.28
2017-08-19T03:47:45.587Z,99116.31
2017-08-19T03:50:13.063Z,99150.23
2017-08-19T03:52:40.526Z,99148.27
2017-08-19T03:55:08.023Z,99155.44
2017-08-19T03:57:35.477Z,99164.95
2017-08-19T04:00:02.974Z,99172.92
2017-08-19T04:02:30.461Z,99179.37
2017-08-19T04:04:57.930Z,99179.09
2017-08-19T04:07:25.418Z,99176.30
2017-08-19T04:09:52.925Z,99176.73
2017-08-19T04:12:20.384Z,99174.11
2017-08-19T04:14:47.882Z,99176.47
2017-08-19T04:17:15.352Z,99174.73
2017-08-19T04:19:42.842Z,99172.30
2017-08-19T04:22:10.342Z,99175.27
2017-08-19T04:24:37.821Z,99160.90
2017-08-19T04:27:06.383Z,99174.52
2017-08-19T04:29:33.860Z,99172.20
2017-08-19T04:32:01.477Z,99176.06
2017-08-19T04:34:28.953Z,99176.06
2017-08-19T04:36:56.561Z,99171.62
2017-08-19T04:39:24.009Z,99163.21
2017-08-19T04:41:51.454Z,99160.50
2017-08-19T04:44:18.959Z,99159.56
2017-08-19T04:46:46.415Z,99147.20
2017-08-19T04:49:14.813Z,99157.34
2017-08-19T04:51:42.275Z,99160.55
2017-08-19T04:54:09.763Z,99175.88
2017-08-19T04:56:37.257Z,99162.27
2017-08-19T04:59:04.932Z,99161.95
2017-08-19T05:01:32.409Z,99168.33
2017-08-19T05:03:59.861Z,99162.58
2017-08-19T05:06:27.354Z,99161.59
2017-08-19T05:08:54.805Z,99162.58
2017-08-19T05:11:22.408Z,99171.20
2017-08-19T05:13:49.895Z,99176.05
2017-08-19T05:16:17.359Z,99183.29
2017-08-19T05:18:44.836Z,99183.05
2017-08-19T05:21:12.303Z,99184.70
2017-08-19T05:23:39.804Z,99183.91
2017-08-19T05:26:07.263Z,99177.64
2017-08-19T05:28:34.840Z,99182.53
2017-08-19T05:31:02.298Z,99184.53
2017-08-19T05:33:29.776Z,99187.87
2017-08-19T05:35:57.261Z,99191.38
2017-08-19T05:38:24.708Z,99198.46
2017-08-19T05:40:52.206Z,99191.25
2017-08-19T05:43:19.653Z,99199.01
2017-08-19T05:45:47.142Z,99204.29
2017-08-19T05:48:14.598Z,99198.73
2017-08-19T05:50:42.068Z,99197.27
2017-08-19T05:53:09.527Z,99196.74
2017-08-19T05:55:37.051Z,99191.15
2017-08-19T05:58:05.621Z,99191.69
2017-08-19T06:00:33.113Z,99190.23
2017-08-19T06:03:01.368Z,99195.03
2017-08-19T06:05:28.829Z,99202.16
2017-08-19T06:07:57.018Z,99175.18
2017-08-19T06:10:24.470Z,99197.27
2017-08-19T06:12:52.505Z,99190.27
2017-08-19T06:15:19.974Z,99199.98
2017-08-19T06:17:47.431Z,99195.34
2017-08-19T06:20:15.094Z,99202.50
2017-08-19T06:22:42.549Z,99208.43
2017-08-19T06:25:10.674Z,99207.45
2017-08-19T06:27:38.159Z,99206.65
2017-08-19T06:30:05.623Z,99217.02
2017-08-19T06:32:33.109Z,99216.48
2017-08-19T06:35:00.581Z,99226.67
2017-08-19T06:37:28.064Z,99225.53
2017-08-19T06:39:55.521Z,99231.08
2017-08-19T06:42:23.123Z,99228.41
2017-08-19T06:44:50.586Z,99227.61
2017-08-19T06:47:18.053Z,99236.86
2017-08-19T06:49:45.557Z,99244.16
2017-08-19T06:52:13.001Z,99245.77
2017-08-19T06:54:40.638Z,99251.89
2017-08-19T06:57:08.094Z,99251.56
2017-08-19T06:59:35.943Z,99253.74
2017-08-19T07:02:03.406Z,99253.02
2017-08-19T07:04:30.854Z,99248.17
2017-08-19T07:06:58.331Z,99274.78
2017-08-19T07:09:25.806Z,99254.58
2017-08-19T07:11:54.093Z,99262.84
2017-08-19T07:14:21.562Z,99269.42
2017-08-19T07:16:49.050Z,99260.04
2017-08-19T07:19:16.533Z,99271.48
2017-08-19T07:21:44.041Z,99269.24
2017-08-19T07:24:11.497Z,99272.99
2017-08-19T07:26:38.955Z,99274.87
2017-08-19T07:29:06.454Z,99276.91
2017-08-19T07:31:33.946Z,99284.08
2017-08-19T07:34:01.453Z,99281.96
2017-08-19T07:36:28.946Z,99285.99
2017-08-19T07:38:56.828Z,99267.26
2017-08-19T07:41:24.309Z,99291.05
2017-08-19T07:43:51.793Z,99283.73
2017-08-19T07:46:19.246Z,99286.73
2017-08-19T07:48:46.755Z,99295.73
2017-08-19T07:51:14.210Z,99288.39
2017-08-19T07:53:41.698Z,99289.28
2017-08-19T07:56:09.209Z,99297.39
2017-08-19T07:58:36.671Z,99288.30
2017-08-19T08:01:05.611Z,99294.31
2017-08-19T08:03:33.088Z,99300.10
2017-08-19T08:06:00.627Z,99300.23
2017-08-19T08:08:28.099Z,99308.05
2017-08-19T08:10:55.609Z,99308.93
2017-08-19T08:13:23.184Z,99307.89
2017-08-19T08:15:50.694Z,99315.30
2017-08-19T08:18:18.192Z,99308.34
2017-08-19T08:20:46.111Z,99313.61
2017-08-19T08:23:13.615Z,99315.40
2017-08-19T08:25:41.077Z,99296.93
2017-08-19T08:28:08.587Z,99315.64
2017-08-19T08:30:36.063Z,99318.82
2017-08-19T08:33:03.551Z,99306.27
2017-08-19T08:35:31.021Z,99315.17
2017-08-19T08:37:58.535Z,99310.20
2017-08-19T08:40:25.996Z,99314.55
2017-08-19T08:42:53.455Z,99308.41
2017-08-19T08:45:20.950Z,99300.65
2017-08-19T08:47:48.415Z,99311.65
2017-08-19T08:50:15.925Z,99306.54
2017-08-19T08:52:43.384Z,99303.69
2017-08-19T08:55:10.876Z,99309.17
2017-08-19T08:57:38.393Z,99306.09
2017-08-19T09:00:05.864Z,99309.09
2017-08-19T09:02:33.375Z,99302.77
2017-08-19T09:05:00.837Z,99314.60
2017-08-19T09:07:28.350Z,99319.90
2017-08-19T09:09:55.835Z,99319.86
2017-08-19T09:12:23.300Z,99305.89
2017-08-19T09:14:51.732Z,99306.84
2017-08-19T09:17:19.281Z,99309.61
2017-08-19T09:19:46.773Z,99303.39
2017-08-19T09:22:14.266Z,99294.59
2017-08-19T09:24:41.744Z,99294.73
2017-08-19T09:27:09.211Z,99304.84
2017-08-19T09:29:36.749Z,99300.87
2017-08-19T09:32:04.217Z,99302.47
2017-08-19T09:34:31.721Z,99294.86
2017-08-19T09:36:59.178Z,99293.31
2017-08-19T09:39:26.657Z,99287.00
2017-08-19T09:41:54.168Z,99296.39
2017-08-19T09:44:21.679Z,99291.83
2017-08-19T09:46:49.144Z,99291.33
2017-08-19T09:49:16.623Z,99292.69
2017-08-19T09:51:44.158Z,99282.84
2017-08-19T09:54:11.626Z,99282.84
2017-08-19T09:56:39.120Z,99290.89
2017-08-19T09:59:06.592Z,99293.99
2017-08-19T10:01:34.080Z,99285.55
2017-08-19T10:04:01.805Z,99298.72
2017-08-19T10:06:29.308Z,99279.53
2017-08-19T10:09:17.413Z,99296.67
2017-08-19T10:11:45.122Z,99283.23
2017-08-19T10:14:12.612Z,99292.06
2017-08-19T10:16:40.096Z,99288.52
2017-08-19T10:19:07.596Z,99293.25
2017-08-19T10:21:35.081Z,99289.94
2017-08-19T10:24:02.575Z,99292.39
2017-08-19T10:26:30.057Z,99306.07
2017-08-19T10:28:58.504Z,99291.34
2017-08-19T10:31:27.346Z,99295.42
2017-08-19T10:33:54.826Z,99292.27
2017-08-19T10:36:22.400Z,99292.72
2017-08-19T10:38:49.903Z,99303.94
2017-08-19T10:41:17.395Z,99289.55
2017-08-19T10:43:44.863Z,99297.26
2017-08-19T10:46:12.360Z,99298.29
2017-08-19T10:48:39.829Z,99296.22
2017-08-19T10:51:07.337Z,99288.95
2017-08-19T10:53:34.794Z,99287.70
2017-08-19T10:56:02.267Z,99297.84
2017-08-19T10:58:29.752Z,99294.27
2017-08-19T11:00:57.258Z,99304.20
2017-08-19T11:03:24.731Z,99299.27
2017-08-19T11:05:52.233Z,99298.92
2017-08-19T11:08:20.331Z,99290.58
2017-08-19T11:10:48.318Z,99312.12
2017-08-19T11:13:15.839Z,99304.06
2017-08-19T11:15:43.328Z,99295.88
2017-08-19T11:18:10.839Z,99291.20
2017-08-19T11:20:38.298Z,99295.06
2017-08-19T11:23:05.806Z,99294.97
2017-08-19T11:25:33.291Z,99300.25
2017-08-19T11:28:00.786Z,99298.74
2017-08-19T11:30:28.241Z,99302.35
2017-08-19T11:32:56.126Z,99289.08
2017-08-19T11:35:23.594Z,99295.38
2017-08-19T11:37:51.057Z,99297.83
2017-08-19T11:40:18.567Z,99300.80
2017-08-19T11:42:46.023Z,99289.88
2017-08-19T11:45:13.530Z,99318.34
2017-08-19T11:47:41.017Z,99306.08
2017-08-19T11:50:08.527Z,99295.80
2017-08-19T11:52:36.028Z,99299.44
2017-08-19T11:55:03.509Z,99308.53
2017-08-19T11:57:30.960Z,99299.87
2017-08-19T11:59:58.481Z,99307.03
2017-08-19T12:02:25.937Z,99312.59
2017-08-19T12:04:53.436Z,99310.55
2017-08-19T12:07:20.907Z,99324.31
2017-08-19T12:09:48.403Z,99320.48
2017-08-19T12:12:15.861Z,99332.50
2017-08-19T12:14:43.399Z,99333.15
2017-08-19T12:17:10.906Z,99314.92
2017-08-19T12:19:38.353Z,99318.88
2017-08-19T12:22:05.989Z,99315.05
2017-08-19T12:24:33.505Z,99312.86
2017-08-19T12:27:01.582Z,99310.38
2017-08-19T12:29:29.079Z,99302.95
2017-08-19T12:31:56.586Z,99306.20
2017-08-19T12:34:24.284Z,99310.59
2017-08-19T12:36:51.779Z,99339.14
2017-08-19T12:39:19.268Z,99322.86
2017-08-19T12:41:46.719Z,99327.43
2017-08-19T12:44:14.271Z,99314.80
2017-08-19T12:46:41.759Z,99317.64
2017-08-19T12:49:09.259Z,99320.84
2017-08-19T12:51:36.750Z,99325.73
2017-08-19T12:54:05.170Z,99334.80
2017-08-19T12:56:32.784Z,99331.66
2017-08-19T12:59:00.280Z,99342.42
2017-08-19T13:01:27.771Z,99333.27
2017-08-19T13:03:55.258Z,99335.90
2017-08-19T13:06:22.738Z,99324.70
2017-08-19T13:08:50.190Z,99330.84
2017-08-19T13:11:17.680Z,99332.26
2017-08-19T13:13:45.667Z,99304.97
2017-08-19T13:16:13.157Z,99341.49
2017-08-19T13:18:40.653Z,99335.39
2017-08-19T13:21:08.125Z,99339.14
2017-08-19T13:23:36.004Z,99328.30
2017-08-19T13:26:03.460Z,99329.28
2017-08-19T13:28:30.933Z,99319.31
2017-08-19T13:30:58.435Z,99318.02
2017-08-19T13:33:25.928Z,99326.22
2017-08-19T13:35:53.397Z,99336.86
2017-08-19T13:38:20.899Z,99336.09
2017-08-19T13:40:48.382Z,99330.45
2017-08-19T13:43:15.862Z,99340.60
2017-08-19T13:45:43.349Z,99338.17
2017-08-19T13:48:10.848Z,99336.44
2017-08-19T13:50:38.366Z,99343.13
2017-08-19T13:53:05.887Z,99338.81
2017-08-19T13:55:33.356Z,99335.45
2017-08-19T13:58:00.862Z,99339.89
2017-08-19T14:00:28.343Z,99333.86
2017-08-19T14:02:55.838Z,99332.91
2017-08-19T14:05:23.301Z,99335.09
2017-08-19T14:07:51.750Z,99340.84
2017-08-19T14:10:19.243Z,99336.43
2017-08-19T14:12:46.806Z,99326.31
2017-08-19T14:15:14.293Z,99326.75
2017-08-19T14:17:41.778Z,99330.39
2017-08-19T14:20:09.278Z,99330.27
2017-08-19T14:22:36.787Z,99334.62
2017-08-19T14:25:04.833Z,99331.33
2017-08-19T14:27:33.207Z,99339.57
2017-08-19T14:30:01.792Z,99339.33
2017-08-19T14:32:29.257Z,99335.77
2017-08-19T14:34:56.751Z,99332.73
2017-08-19T14:37:24.255Z,99319.86
2017-08-19T14:39:51.701Z,99321.73
2017-08-19T14:42:19.183Z,99320.72
2017-08-19T14:44:46.646Z,99321.08
2017-08-19T14:47:14.257Z,99316.07
2017-08-19T14:49:41.722Z,99315.00
2017-08-19T14:52:09.419Z,99326.02
2017-08-19T14:54:36.913Z,99318.19
2017-08-19T14:57:04.637Z,99318.05
2017-08-19T14:59:32.118Z,99307.36
2017-08-19T15:01:59.601Z,99308.80
2017-08-19T15:04:27.190Z,99309.64
2017-08-19T15:06:54.653Z,99312.19
2017-08-19T15:09:22.153Z,99301.70
2017-08-19T15:11:49.647Z,99306.69
2017-08-19T15:14:17.276Z,99317.51
2017-08-19T15:16:44.741Z,99312.97
2017-08-19T15:19:12.210Z,99311.86
2017-08-19T15:21:39.720Z,99319.55
2017-08-19T15:24:07.215Z,99306.64
2017-08-19T15:26:35.129Z,99298.39
2017-08-19T15:29:02.603Z,99307.72
2017-08-19T15:31:30.127Z,99314.75
2017-08-19T15:33:57.596Z,99314.14
2017-08-19T15:36:25.261Z,99319.02
2017-08-19T15:38:52.761Z,99309.02
2017-08-19T15:41:20.248Z,99306.37
2017-08-19T15:43:47.729Z,99307.84
2017-08-19T15:46:15.225Z,99304.28
2017-08-19T15:48:42.707Z,99301.92
2017-08-19T15:51:10.261Z,99309.88
2017-08-19T15:53:37.755Z,99317.42
2017-08-19T15:56:05.504Z,99316.73
2017-08-19T15:58:32.990Z,99300.87
2017-08-19T16:01:00.463Z,99307.23
2017-08-19T16:03:27.979Z,99318.73
2017-08-19T16:05:55.459Z,99310.59
2017-08-19T16:08:22.971Z,99308.23
2017-08-19T16:10:50.441Z,99307.17
2017-08-19T16:13:17.943Z,99307.16
2017-08-19T16:15:45.442Z,99303.19
2017-08-19T16:18:12.904Z,99307.88
2017-08-19T16:20:40.419Z,99306.19
2017-08-19T16:23:08.372Z,99311.05
2017-08-19T16:25:35.862Z,99307.21
2017-08-19T16:28:03.330Z,99307.42
2017-08-19T16:30:30.847Z,99313.83
2017-08-19T16:32:58.326Z,99312.36
2017-08-19T16:35:25.828Z,99316.63
2017-08-19T16:37:53.298Z,99315.24
2017-08-19T16:40:20.789Z,99316.39
2017-08-19T16:42:48.274Z,99321.35
2017-08-19T16:45:15.758Z,99316.28
2017-08-19T16:47:43.274Z,99318.39
2017-08-19T16:50:10.734Z,99322.64
2017-08-19T16:52:38.282Z,99323.11
2017-08-19T16:55:05.775Z,99288.08
2017-08-19T16:57:33.279Z,99331.94
2017-08-19T17:00:00.749Z,99326.16
2017-08-19T17:02:28.225Z,99319.80
2017-08-19T17:04:55.682Z,99335.28
2017-08-19T17:07:23.162Z,99336.56
2017-08-19T17:09:50.609Z,99333.67
2017-08-19T17:12:18.103Z,99333.20
2017-08-19T17:14:45.571Z,99333.55
2017-08-19T17:17:13.090Z,99338.73
2017-08-19T17:19:40.542Z,99338.47
2017-08-19T17:22:08.034Z,99342.67
2017-08-19T17:24:35.490Z,99342.89
2017-08-19T17:27:02.985Z,99352.14
2017-08-19T17:29:30.446Z,99345.09
2017-08-19T17:31:57.946Z,99347.45
2017-08-19T17:34:25.422Z,99349.11
2017-08-19T17:36:52.930Z,99355.41
2017-08-19T17:39:20.408Z,99353.48
2017-08-19T17:41:47.869Z,99354.31
2017-08-19T17:44:15.469Z,99359.23
2017-08-19T17:46:42.927Z,99356.18
2017-08-19T17:49:10.419Z,99357.52
2017-08-19T17:51:37.914Z,99361.35
2017-08-19T17:54:05.378Z,99368.51
2017-08-19T17:56:32.860Z,99368.30
2017-08-19T17:59:00.314Z,99386.20
2017-08-19T18:01:27.874Z,99380.75
2017-08-19T18:03:55.339Z,99383.52
2017-08-19T18:06:22.794Z,99377.74
2017-08-19T18:08:50.361Z,99368.39
2017-08-19T18:11:17.842Z,99375.30
2017-08-19T18:13:45.300Z,99373.80
2017-08-19T18:16:12.890Z,99378.32
2017-08-19T18:18:40.398Z,99377.41
2017-08-19T18:21:10.642Z,99382.68
2017-08-19T18:23:38.179Z,99381.92
2017-08-19T18:26:05.658Z,99385.38
2017-08-19T18:28:33.173Z,99390.81
2017-08-19T18:31:00.640Z,99392.48
2017-08-19T18:33:28.432Z,99392.90
2017-08-19T18:35:56.139Z,99391.87
2017-08-19T18:38:23.618Z,99395.12
2017-08-19T18:40:51.109Z,99403.25
2017-08-19T18:43:18.570Z,99411.15
2017-08-19T18:45:46.052Z,99405.09
2017-08-19T18:48:13.522Z,99412.36
2017-08-19T18:50:41.427Z,99410.28
2017-08-19T18:53:08.927Z,99399.32
2017-08-19T18:55:36.406Z,99419.88
2017-08-19T18:58:03.933Z,99427.75
2017-08-19T19:00:31.402Z,99422.97
2017-08-19T19:02:58.906Z,99436.48
2017-08-19T19:05:26.390Z,99440.95
2017-08-19T19:07:53.881Z,99446.80
2017-08-19T19:10:21.566Z,99434.41
2017-08-19T19:12:49.051Z,99442.20
2017-08-19T19:15:16.568Z,99441.11
2017-08-19T19:17:44.084Z,99443.41
2017-08-19T19:20:11.572Z,99443.19
2017-08-19T19:22:39.094Z,99445.39
2017-08-19T19:25:06.586Z,99448.45
2017-08-19T19:27:34.058Z,99450.88
2017-08-19T19:30:01.551Z,99454.75
2017-08-19T19:32:29.065Z,99449.31
2017-08-19T19:34:56.566Z,99455.53
2017-08-19T19:37:24.068Z,99460.34
2017-08-19T19:39:51.588Z,99461.90
2017-08-19T19:42:19.049Z,99466.09
2017-08-19T19:44:46.530Z,99464.25
2017-08-19T19:47:13.975Z,99467.26
2017-08-19T19:49:41.818Z,99464.16
2017-08-19T19:52:09.322Z,99471.99
2017-08-19T19:54:36.773Z,99472.39
2017-08-19T19:57:04.305Z,99473.55
2017-08-19T19:59:31.769Z,99467.78
2017-08-19T20:01:59.332Z,99465.27
2017-08-19T20:04:26.799Z,99470.88
2017-08-19T20:06:54.309Z,99468.58
2017-08-19T20:09:21.839Z,99470.05
2017-08-19T20:11:49.317Z,99466.55
2017-08-19T20:14:16.836Z,99472.78
2017-08-19T20:16:44.296Z,99470.21
2017-08-19T20:19:11.783Z,99465.27
2017-08-19T20:21:39.246Z,99469.38
2017-08-19T20:24:06.742Z,99469.28
2017-08-19T20:26:34.233Z,99461.86
2017-08-19T20:29:01.718Z,99473.54
2017-08-19T20:31:29.193Z,99474.89
2017-08-19T20:33:56.677Z,99482.02
2017-08-19T20:36:24.143Z,99474.20
2017-08-19T20:38:51.639Z,99482.75
2017-08-19T20:41:19.193Z,99489.25
2017-08-19T20:43:46.661Z,99482.59
2017-08-19T20:46:14.234Z,99485.97
2017-08-19T20:48:41.734Z,99488.37
2017-08-19T20:51:09.230Z,99489.66
2017-08-19T20:53:36.714Z,99489.70
2017-08-19T20:56:04.322Z,99486.70
2017-08-19T20:58:31.814Z,99491.34
2017-08-19T21:00:59.265Z,99487.11
2017-08-19T21:03:26.745Z,99486.92
2017-08-19T21:05:54.197Z,99486.18
2017-08-19T21:08:21.673Z,99495.79
2017-08-19T21:10:49.154Z,99492.77
2017-08-19T21:13:16.650Z,99496.27
2017-08-19T21:15:44.113Z,99497.78
2017-08-19T21:18:11.603Z,99495.19
2017-08-19T21:20:39.094Z,99502.71
2017-08-19T21:23:06.587Z,99498.56
2017-08-19T21:25:34.083Z,99494.41
2017-08-19T21:28:01.537Z,99492.88
2017-08-19T21:30:29.068Z,99503.09
2017-08-19T21:32:56.561Z,99511.01
2017-08-19T21:35:24.090Z,99510.81
2017-08-19T21:37:51.570Z,99510.92
2017-08-19T21:40:19.060Z,99512.18
2017-08-19T21:42:46.556Z,99515.83
2017-08-19T21:45:14.044Z,99508.50
2017-08-19T21:47:41.502Z,99510.72
2017-08-19T21:50:08.989Z,99517.59
2017-08-19T21:52:36.473Z,99507.43
2017-08-19T21:55:03.939Z,99514.03
2017-08-19T21:57:31.809Z,99517.43
2017-08-19T22:00:02.274Z,99510.39
2017-08-19T22:02:29.812Z,99517.05
2017-08-19T22:04:57.298Z,99521.76
2017-08-19T22:07:24.810Z,99519.84
2017-08-19T22:09:52.270Z,99523.19
2017-08-19T22:12:19.739Z,99519.77
2017-08-19T22:14:47.223Z,99516.42
2017-08-19T22:17:14.706Z,99522.78
2017-08-19T22:19:43.025Z,99521.23
2017-08-19T22:22:10.530Z,99522.29
2017-08-19T22:24:38.023Z,99523.59
2017-08-19T22:27:06.221Z,99525.19
2017-08-19T22:29:33.705Z,99519.19
2017-08-19T22:32:01.170Z,99518.25
2017-08-19T22:34:28.690Z,99518.23
2017-08-19T22:36:56.166Z,99515.70
2017-08-19T22:39:23.633Z,99514.60
2017-08-19T22:41:51.147Z,99512.18
2017-08-19T22:44:18.618Z,99517.75
2017-08-19T22:46:46.106Z,99512.30
2017-08-19T22:49:13.562Z,99514.45
2017-08-19T22:51:41.043Z,99514.41
2017-08-19T22:54:08.498Z,99516.94
2017-08-19T22:56:35.981Z,99508.99
2017-08-19T22:59:04.513Z,99509.19
2017-08-19T23:01:31.995Z,99524.00
2017-08-19T23:03:59.464Z,99524.89
2017-08-19T23:06:26.946Z,99520.19
2017-08-19T23:08:54.428Z,99517.96
2017-08-19T23:11:21.883Z,99520.98
2017-08-19T23:13:49.363Z,99518.39
2017-08-19T23:16:16.813Z,99526.92
2017-08-19T23:18:44.293Z,99533.80
2017-08-19T23:21:11.793Z,99524.06
2017-08-19T23:23:39.279Z,99529.34
2017-08-19T23:26:06.734Z,99533.17
2017-08-19T23:28:34.220Z,99533.23
2017-08-19T23:31:01.677Z,99531.84
2017-08-19T23:33:29.166Z,99526.27
2017-08-19T23:35:56.671Z,99521.48
2017-08-19T23:38:24.126Z,99525.38
2017-08-19T23:40:51.613Z,99524.37
2017-08-19T23:43:19.113Z,99531.09
2017-08-19T23:45:46.576Z,99534.69
2017-08-19T23:48:14.057Z,99527.18
2017-08-19T23:50:41.508Z,99531.13
2017-08-19T23:53:08.985Z,99541.67
2017-08-19T23:55:36.472Z,99545.64
2017-08-19T23:58:03.957Z,99547.85
